WetterOnline ( https://www.wetteronline.de )

Wetter aktuell Heinrichsegen

Aktuelles Wetter: Gießen (195m)

6-stündlich | Neueste Meldungen
Ortszeit Temperatur Wetter
Mo, 06.02. 19:00 2.8° C bewölkt
Mo, 06.02. 13:00 5.1° C wolkig
Mo, 06.02. 7:00 2.2° C bedeckt
Mo, 06.02. 1:00 3.1° C Regen
So, 05.02. 19:00 4.2° C bedeckt
So, 05.02. 13:00 2.6° C leichter Regen
So, 05.02. 7:00 1.5° C leichter Regen
So, 05.02. 1:00 1.3° C wolkenlos
Ortszeit Temperatur Wetter
Mo, 06.02. 23:00 1.2° C bewölkt
Mo, 06.02. 22:50 1.2° C bewölkt
Mo, 06.02. 22:40 1.2° C bedeckt
Mo, 06.02. 22:30 1.2° C bedeckt
Mo, 06.02. 22:20 1.2° C bedeckt
Mo, 06.02. 22:10 1.3° C bedeckt
Mo, 06.02. 22:00 1.4° C bedeckt
Mo, 06.02. 21:30 1.1° C wolkig
Mo, 06.02. 21:00 0.8° C wolkig
Mo, 06.02. 20:30 1.1° C leicht bewölkt
Mo, 06.02. 20:00 1.3° C wolkenlos
Ortszeit Relative Feuchte Sichtweite
Mo, 06.02. 19:00 78% 35 km
Mo, 06.02. 13:00 62% 40 km
Mo, 06.02. 7:00 82% 45 km
Mo, 06.02. 1:00 99% 5.0 km
So, 05.02. 19:00 95% 28 km
So, 05.02. 13:00 96% 6 km
So, 05.02. 7:00 95% 8 km
So, 05.02. 1:00 89% 30 km
Ortszeit Relative Feuchte Sichtweite
Mo, 06.02. 23:00 75% 65 km
Mo, 06.02. 22:50 75% -
Mo, 06.02. 22:40 76% -
Mo, 06.02. 22:30 75% 60 km
Mo, 06.02. 22:20 75% -
Mo, 06.02. 22:10 74% -
Mo, 06.02. 22:00 76% 40 km
Mo, 06.02. 21:30 79% 30 km
Mo, 06.02. 21:00 80% 30 km
Mo, 06.02. 20:30 78% 30 km
Mo, 06.02. 20:00 77% 35 km
Ortszeit Niederschlagsmenge Niederschlagsart
Mo, 06.02. 19:00 0.0 l/m2 in 12 Std. -
Mo, 06.02. 13:00 0.0 l/m2 in 6 Std. -
Mo, 06.02. 7:00 0.3 l/m2 in 12 Std. Regen
Mo, 06.02. 1:00 0.1 l/m2 in 6 Std. Regen
So, 05.02. 19:00 3 l/m2 in 12 Std. Regen
So, 05.02. 13:00 3 l/m2 in 6 Std. Regen
So, 05.02. 7:00 0.1 l/m2 in 12 Std. Regen
So, 05.02. 1:00 0.0 l/m2 in 6 Std. -
Ortszeit Niederschlagsmenge Niederschlagsart
Mo, 06.02. 23:00 0.0 l/m2 in 1 Std. -
Mo, 06.02. 22:50 keine Meldung -
Mo, 06.02. 22:40 keine Meldung -
Mo, 06.02. 22:30 0.0 l/m2 in 30 Min -
Mo, 06.02. 22:20 keine Meldung -
Mo, 06.02. 22:10 keine Meldung -
Mo, 06.02. 22:00 0.0 l/m2 in 1 Std. -
Mo, 06.02. 21:30 0.0 l/m2 in 30 Min -
Mo, 06.02. 21:00 0.0 l/m2 in 1 Std. -
Mo, 06.02. 20:30 0.0 l/m2 in 30 Min -
Mo, 06.02. 20:00 0.0 l/m2 in 1 Std. -
Ortszeit Stärke Spitze Richtung
km/h Bft. km/h Grad Sektor
Mo, 06.02. 19:00 17 3 43 20° N
Mo, 06.02. 13:00 18 3 29 10° N
Mo, 06.02. 7:00 9 2 24 320° NW
Mo, 06.02. 1:00 4 1 22 30° NO
So, 05.02. 19:00 11 2 18 350° N
So, 05.02. 13:00 4 1 11 110° O
So, 05.02. 7:00 4 1 7 10° N
So, 05.02. 1:00 2 1 11 10° N
Ortszeit Stärke Spitze Richtung
km/h Bft. km/h Grad Sektor
Mo, 06.02. 23:00 13 3 24 50° NO
Mo, 06.02. 22:50 13 3 - 50° NO
Mo, 06.02. 22:40 14 3 - 40° NO
Mo, 06.02. 22:30 14 3 22 40° NO
Mo, 06.02. 22:20 14 3 - 40° NO
Mo, 06.02. 22:10 14 3 - 60° NO
Mo, 06.02. 22:00 18 3 25 50° NO
Mo, 06.02. 21:30 15 3 24 30° NO
Mo, 06.02. 21:00 19 3 26 20° N
Mo, 06.02. 20:30 20 4 26 10° N
Mo, 06.02. 20:00 17 3 24 10° N
Ortszeit Untergrenze Bedeckung Gattung
total tief tief mittel hoch
Mo, 06.02. 19:00 930 m 7/8 7/8 - - -
Mo, 06.02. 13:00 4200 m 8/8 8/8 - - -
Mo, 06.02. 7:00 750 m 8/8 8/8 - - -
Mo, 06.02. 1:00 180 m 7/8 7/8 - - -
So, 05.02. 19:00 390 m 8/8 8/8 - - -
So, 05.02. 13:00 90 m 8/8 8/8 - - -
So, 05.02. 7:00 660 m 7/8 7/8 - - -
So, 05.02. 1:00 - 0/8 0/8 - - -
Ortszeit Bedeckungsgrad in Achtel und Wolkenuntergrenze
Mo, 06.02. 23:00 7(660m)
Mo, 06.02. 22:50 7(660m)
Mo, 06.02. 22:40 8
Mo, 06.02. 22:30 8(660m)
Mo, 06.02. 22:20 8(660m)
Mo, 06.02. 22:10 8
Mo, 06.02. 22:00 8(660m)
Mo, 06.02. 21:30 6(690m)
Mo, 06.02. 21:00 5(810m)
Mo, 06.02. 20:30 3(870m)
Mo, 06.02. 20:00 keine Wolken
Ortszeit Luftdruck NN (hPa) Tendenz (hPa in 3 Std.)
Mo, 06.02. 19:00 1039 + 0,4
Mo, 06.02. 13:00 1039 - 1,6
Mo, 06.02. 7:00 1041 + 0,5
Mo, 06.02. 1:00 1040 + 1,3
So, 05.02. 19:00 1038 + 2,3
So, 05.02. 13:00 1035 - 1,0
So, 05.02. 7:00 1037 - 0,1
So, 05.02. 1:00 1039 - 0,2
Ortszeit Luftdruck NN (hPa) Tendenz (hPa in 3 Std.)
Mo, 06.02. 23:00 1041 + 1,0
Mo, 06.02. 22:50 1041 keine Meldung
Mo, 06.02. 22:40 1040 keine Meldung
Mo, 06.02. 22:30 1040 + 0,7
Mo, 06.02. 22:20 1040 keine Meldung
Mo, 06.02. 22:10 1040 keine Meldung
Mo, 06.02. 22:00 1040 + 1,0
Mo, 06.02. 21:30 1040 + 1,1
Mo, 06.02. 21:00 1040 + 0,7
Mo, 06.02. 20:30 1040 + 0,8
Mo, 06.02. 20:00 1040 + 0,8
Ortszeit Schneehöhe (cm)
Mo, 06.02. 19:00 0
Mo, 06.02. 13:00 0
Mo, 06.02. 7:00 0
Mo, 06.02. 1:00 0
So, 05.02. 19:00 0
So, 05.02. 13:00 0
So, 05.02. 7:00 0
So, 05.02. 1:00 0
Ortszeit Schneehöhe (cm)
Mo, 06.02. 23:00 0
Mo, 06.02. 22:50 0
Mo, 06.02. 22:40 0
Mo, 06.02. 22:30 0
Mo, 06.02. 22:20 0
Mo, 06.02. 22:10 0
Mo, 06.02. 22:00 0
Mo, 06.02. 21:30 0
Mo, 06.02. 21:00 0
Mo, 06.02. 20:30 0
Mo, 06.02. 20:00 0
Link zu dieser Seite / Seite empfehlen

Das Wetter in ...